createdAt,value
2023-05-29T00:01:01.000Z,17.00
2023-05-29T00:03:27.853Z,16.90
2023-05-29T00:05:54.839Z,16.80
2023-05-29T00:08:21.614Z,16.70
2023-05-29T00:10:48.184Z,16.80
2023-05-29T00:13:14.968Z,16.60
2023-05-29T00:15:42.142Z,16.50
2023-05-29T00:18:08.929Z,16.40
2023-05-29T00:20:35.747Z,16.50
2023-05-29T00:23:07.061Z,16.60
2023-05-29T00:25:33.723Z,16.50
2023-05-29T00:28:00.388Z,16.50
2023-05-29T00:30:27.036Z,16.40
2023-05-29T00:32:55.304Z,16.30
2023-05-29T00:35:22.180Z,16.20
2023-05-29T00:37:48.924Z,16.10
2023-05-29T00:40:15.533Z,16.20
2023-05-29T00:42:42.260Z,16.20
2023-05-29T00:45:09.200Z,16.20
2023-05-29T00:47:36.101Z,16.20
2023-05-29T00:50:03.338Z,16.30
2023-05-29T00:52:30.342Z,16.10
2023-05-29T00:54:58.094Z,16.00
2023-05-29T00:57:25.114Z,15.90
2023-05-29T00:59:51.946Z,16.00
2023-05-29T01:02:19.537Z,16.00
2023-05-29T01:04:46.678Z,15.90
2023-05-29T01:07:14.933Z,15.80
2023-05-29T01:09:41.690Z,15.70
2023-05-29T01:12:46.768Z,15.60
2023-05-29T01:15:22.821Z,15.50
2023-05-29T01:18:09.616Z,15.40
2023-05-29T01:20:42.884Z,15.30
2023-05-29T01:23:24.240Z,15.40
2023-05-29T01:26:08.132Z,15.50
2023-05-29T01:28:43.748Z,15.40
2023-05-29T01:31:13.769Z,15.30
2023-05-29T01:33:41.810Z,15.30
2023-05-29T01:36:12.237Z,15.30
2023-05-29T01:38:38.970Z,15.30
2023-05-29T01:41:05.858Z,15.30
2023-05-29T01:43:33.422Z,15.20
2023-05-29T01:46:00.422Z,15.10
2023-05-29T01:48:28.488Z,15.00
2023-05-29T01:50:57.204Z,15.00
2023-05-29T01:53:25.111Z,15.00
2023-05-29T01:55:52.230Z,15.10
2023-05-29T01:58:20.915Z,15.00
2023-05-29T02:00:49.146Z,15.00
2023-05-29T02:03:15.752Z,15.00
2023-05-29T02:05:42.548Z,14.90
2023-05-29T02:08:09.083Z,14.70
2023-05-29T02:10:35.713Z,14.70
2023-05-29T02:13:02.269Z,14.60
2023-05-29T02:15:28.900Z,14.60
2023-05-29T02:17:56.556Z,14.70
2023-05-29T02:20:23.176Z,14.80
2023-05-29T02:22:49.751Z,14.80
2023-05-29T02:25:16.345Z,14.80
2023-05-29T02:27:43.039Z,14.80
2023-05-29T02:30:09.771Z,14.80
2023-05-29T02:32:36.442Z,14.70
2023-05-29T02:35:06.916Z,14.60
2023-05-29T02:37:33.449Z,14.50
2023-05-29T02:39:59.990Z,14.30
2023-05-29T02:42:26.564Z,14.10
2023-05-29T02:44:53.108Z,14.00
2023-05-29T02:47:19.658Z,14.00
2023-05-29T02:49:46.220Z,14.00
2023-05-29T02:52:12.778Z,13.90
2023-05-29T02:54:39.318Z,13.90
2023-05-29T02:57:06.033Z,13.90
2023-05-29T02:59:33.200Z,13.90
2023-05-29T03:02:00.025Z,13.90
2023-05-29T03:04:27.471Z,14.00
2023-05-29T03:06:54.391Z,13.90
2023-05-29T03:09:21.376Z,13.90
2023-05-29T03:11:51.610Z,13.80
2023-05-29T03:14:19.813Z,13.70
2023-05-29T03:16:46.820Z,13.60
2023-05-29T03:19:13.523Z,13.70
2023-05-29T03:21:40.264Z,13.60
2023-05-29T03:24:07.377Z,13.50
2023-05-29T03:26:37.667Z,13.40
2023-05-29T03:29:04.709Z,13.30
2023-05-29T03:31:33.090Z,13.30
2023-05-29T03:34:00.814Z,13.30
2023-05-29T03:36:37.496Z,13.30
2023-05-29T03:39:04.863Z,13.30
2023-05-29T03:41:31.869Z,13.40
2023-05-29T03:43:58.906Z,13.50
2023-05-29T03:46:28.729Z,13.60
2023-05-29T03:48:55.717Z,13.80
2023-05-29T03:51:22.346Z,13.90
2023-05-29T03:53:50.614Z,13.80
2023-05-29T03:56:18.693Z,13.70
2023-05-29T03:58:45.704Z,13.60
2023-05-29T04:01:13.982Z,13.60
2023-05-29T04:03:40.691Z,13.60
2023-05-29T04:06:07.889Z,13.50
2023-05-29T04:08:35.603Z,13.50
2023-05-29T04:11:04.593Z,13.40
2023-05-29T04:13:31.233Z,13.40
2023-05-29T04:15:58.100Z,13.40
2023-05-29T04:18:24.717Z,13.50
2023-05-29T04:20:51.644Z,13.60
2023-05-29T04:23:18.478Z,13.80
2023-05-29T04:25:45.076Z,14.00
2023-05-29T04:28:13.997Z,14.20
2023-05-29T04:30:40.831Z,14.30
2023-05-29T04:33:08.098Z,14.50
2023-05-29T04:35:37.355Z,14.60
2023-05-29T04:38:08.400Z,14.60
2023-05-29T04:40:35.023Z,14.70
2023-05-29T04:43:03.621Z,14.60
2023-05-29T04:45:42.769Z,14.50
2023-05-29T04:48:09.702Z,14.40
2023-05-29T04:50:37.780Z,14.60
2023-05-29T04:53:04.397Z,14.60
2023-05-29T04:55:30.928Z,14.60
2023-05-29T04:57:58.092Z,14.60
2023-05-29T05:00:26.473Z,14.70
2023-05-29T05:02:53.115Z,14.70
2023-05-29T05:05:19.882Z,14.90
2023-05-29T05:07:46.599Z,15.10
2023-05-29T05:10:14.116Z,15.20
2023-05-29T05:12:41.059Z,15.30
2023-05-29T05:15:08.830Z,15.50
2023-05-29T05:17:36.102Z,15.60
2023-05-29T05:20:02.740Z,15.50
2023-05-29T05:22:29.911Z,15.60
2023-05-29T05:24:57.640Z,15.70
2023-05-29T05:27:24.881Z,15.70
2023-05-29T05:29:52.126Z,15.80
2023-05-29T05:32:19.221Z,15.80
2023-05-29T05:34:48.319Z,15.90
2023-05-29T05:37:15.029Z,16.10
2023-05-29T05:39:43.557Z,16.20
2023-05-29T05:42:10.492Z,16.30
2023-05-29T05:44:54.378Z,16.30
2023-05-29T05:47:21.010Z,16.50
2023-05-29T05:49:47.570Z,16.60
2023-05-29T05:52:14.214Z,16.80
2023-05-29T05:54:40.838Z,16.90
2023-05-29T05:57:07.489Z,17.10
2023-05-29T05:59:36.955Z,17.10
2023-05-29T06:02:07.108Z,17.00
2023-05-29T06:04:36.710Z,17.20
2023-05-29T06:07:03.827Z,17.40
2023-05-29T06:09:30.438Z,17.40
2023-05-29T06:11:57.041Z,17.60
2023-05-29T06:14:24.705Z,17.70
2023-05-29T06:16:51.902Z,17.80
2023-05-29T06:19:18.499Z,18.00
2023-05-29T06:21:54.240Z,18.10
2023-05-29T06:24:21.180Z,18.30
2023-05-29T06:26:48.333Z,18.40
2023-05-29T06:29:16.181Z,18.50
2023-05-29T06:31:42.811Z,18.60
2023-05-29T06:34:09.428Z,18.60
2023-05-29T06:36:36.088Z,18.70
2023-05-29T06:39:02.747Z,18.80
2023-05-29T06:41:29.399Z,18.90
2023-05-29T06:43:56.025Z,19.00
2023-05-29T06:46:22.852Z,18.90
2023-05-29T06:48:49.566Z,18.90
2023-05-29T06:51:17.038Z,19.10
2023-05-29T06:54:12.525Z,19.20
2023-05-29T06:56:39.257Z,19.20
2023-05-29T06:59:06.387Z,19.20
2023-05-29T07:01:33.322Z,19.20
2023-05-29T07:04:04.629Z,19.30
2023-05-29T07:06:32.050Z,19.30
2023-05-29T07:08:59.447Z,19.30
2023-05-29T07:11:27.338Z,19.40
2023-05-29T07:13:55.071Z,19.50
2023-05-29T07:16:25.402Z,19.50
2023-05-29T07:19:02.436Z,19.50
2023-05-29T07:21:32.376Z,19.60
2023-05-29T07:24:00.580Z,19.60
2023-05-29T07:26:27.481Z,19.70
2023-05-29T07:28:54.182Z,19.80
2023-05-29T07:31:20.997Z,19.90
2023-05-29T07:33:50.089Z,20.00
2023-05-29T07:36:18.385Z,20.10
2023-05-29T07:38:46.448Z,20.20
2023-05-29T07:41:16.895Z,20.20
2023-05-29T07:43:53.049Z,20.20
2023-05-29T07:46:20.894Z,20.30
2023-05-29T07:48:50.208Z,20.50
2023-05-29T07:51:18.627Z,20.60
2023-05-29T07:53:47.740Z,20.60
2023-05-29T07:56:15.051Z,20.60
2023-05-29T07:58:42.491Z,20.60
2023-05-29T08:01:09.257Z,20.80
2023-05-29T08:03:36.926Z,20.80
2023-05-29T08:06:25.751Z,20.90
2023-05-29T08:08:53.481Z,20.90
2023-05-29T08:11:23.485Z,20.90
2023-05-29T08:13:50.327Z,20.90
2023-05-29T08:16:18.324Z,21.00
2023-05-29T08:18:45.006Z,21.20
2023-05-29T08:21:11.592Z,21.30
2023-05-29T08:23:38.781Z,21.30
2023-05-29T08:26:05.332Z,21.40
2023-05-29T08:28:31.856Z,21.50
2023-05-29T08:30:58.389Z,21.60
2023-05-29T08:33:24.866Z,21.70
2023-05-29T08:35:51.610Z,21.80
2023-05-29T08:38:18.400Z,21.70
2023-05-29T08:40:45.212Z,21.60
2023-05-29T08:43:17.846Z,21.70
2023-05-29T08:45:45.857Z,21.80
2023-05-29T08:48:13.064Z,21.80
2023-05-29T08:50:49.366Z,21.80
2023-05-29T08:53:17.564Z,21.90
2023-05-29T08:55:44.553Z,22.10
2023-05-29T08:58:12.583Z,22.20
2023-05-29T09:00:39.851Z,22.20
2023-05-29T09:03:06.389Z,22.10
2023-05-29T09:05:33.560Z,22.20
2023-05-29T09:08:00.927Z,22.30
2023-05-29T09:10:27.545Z,22.40
2023-05-29T09:12:54.201Z,22.50
2023-05-29T09:15:23.051Z,22.50
2023-05-29T09:17:59.297Z,22.60
2023-05-29T09:20:26.960Z,22.60
2023-05-29T09:22:55.679Z,22.70
2023-05-29T09:25:28.217Z,22.70
2023-05-29T09:27:59.573Z,22.70
2023-05-29T09:30:50.052Z,22.90
2023-05-29T09:33:17.234Z,23.00
2023-05-29T09:35:46.814Z,23.10
2023-05-29T09:38:37.931Z,23.20
2023-05-29T09:41:07.264Z,23.30
2023-05-29T09:43:34.742Z,23.20
2023-05-29T09:46:02.689Z,23.20
2023-05-29T09:48:30.239Z,23.30
2023-05-29T09:50:59.147Z,23.40
2023-05-29T09:53:26.419Z,23.30
2023-05-29T09:55:54.224Z,23.40
2023-05-29T09:58:21.539Z,23.50
2023-05-29T10:00:49.610Z,23.60
2023-05-29T10:03:18.133Z,23.60
2023-05-29T10:05:50.040Z,23.70
2023-05-29T10:08:19.086Z,23.80
2023-05-29T10:10:49.877Z,23.90
2023-05-29T10:13:17.609Z,23.90
2023-05-29T10:15:46.591Z,24.00
2023-05-29T10:18:46.874Z,24.10
2023-05-29T10:21:13.933Z,24.10
2023-05-29T10:23:46.867Z,24.10
2023-05-29T10:26:32.132Z,24.20
2023-05-29T10:29:25.350Z,24.20
2023-05-29T10:32:13.353Z,24.10
2023-05-29T10:35:12.525Z,24.30
2023-05-29T10:37:49.461Z,24.30
2023-05-29T10:40:17.681Z,24.30
2023-05-29T10:42:55.607Z,24.40
2023-05-29T10:45:31.522Z,24.40
2023-05-29T10:48:07.626Z,24.40
2023-05-29T10:50:38.065Z,24.40
2023-05-29T10:53:05.052Z,24.40
2023-05-29T10:55:36.315Z,24.50
2023-05-29T10:58:13.189Z,24.70
2023-05-29T11:00:43.466Z,24.80
2023-05-29T11:03:11.520Z,24.80
2023-05-29T11:05:57.655Z,24.90
2023-05-29T11:08:34.493Z,25.00
2023-05-29T11:11:01.184Z,25.10
2023-05-29T11:13:36.209Z,24.90
2023-05-29T11:16:07.504Z,24.80
2023-05-29T11:18:43.339Z,25.00
2023-05-29T11:21:33.017Z,25.20
2023-05-29T11:24:06.784Z,25.20
2023-05-29T11:26:37.531Z,25.40
2023-05-29T11:29:06.912Z,25.30
2023-05-29T11:31:35.988Z,25.40
2023-05-29T11:34:05.764Z,25.60
2023-05-29T11:36:36.045Z,25.60
2023-05-29T11:39:03.519Z,25.70
2023-05-29T11:41:30.642Z,25.90
2023-05-29T11:44:03.073Z,25.80
2023-05-29T11:46:33.393Z,25.90
2023-05-29T11:49:00.818Z,25.80
2023-05-29T11:51:28.253Z,25.90
2023-05-29T11:53:59.098Z,26.00
2023-05-29T11:56:27.389Z,25.90
2023-05-29T11:58:57.634Z,25.80
2023-05-29T12:01:25.906Z,25.80
2023-05-29T12:03:53.504Z,25.80
2023-05-29T12:06:38.534Z,25.90
2023-05-29T12:09:06.095Z,25.80
2023-05-29T12:11:32.899Z,25.70
2023-05-29T12:14:03.458Z,25.70
2023-05-29T12:16:32.738Z,25.80
2023-05-29T12:18:59.415Z,26.00
2023-05-29T12:21:28.081Z,26.20
2023-05-29T12:24:06.477Z,26.10
2023-05-29T12:26:40.520Z,26.00
2023-05-29T12:29:07.080Z,26.00
2023-05-29T12:31:35.087Z,26.00
2023-05-29T12:34:08.597Z,26.10
2023-05-29T12:36:35.230Z,26.10
2023-05-29T12:39:07.389Z,26.30
2023-05-29T12:41:39.995Z,26.30
2023-05-29T12:44:07.633Z,26.30
2023-05-29T12:46:44.612Z,26.40
2023-05-29T12:49:22.216Z,26.30
2023-05-29T12:51:49.075Z,26.20
2023-05-29T12:54:17.340Z,26.10
2023-05-29T12:56:44.250Z,26.20
2023-05-29T12:59:11.767Z,26.40
2023-05-29T13:01:39.702Z,26.50
2023-05-29T13:04:09.567Z,26.60
2023-05-29T13:06:38.103Z,26.50
2023-05-29T13:09:06.201Z,26.50
2023-05-29T13:11:33.250Z,26.60
2023-05-29T13:13:59.828Z,26.70
2023-05-29T13:16:26.416Z,26.90
2023-05-29T13:18:53.142Z,26.90
2023-05-29T13:21:19.665Z,26.90
2023-05-29T13:23:46.228Z,26.80
2023-05-29T13:26:12.846Z,26.80
2023-05-29T13:28:39.507Z,26.90
2023-05-29T13:31:06.149Z,27.00
2023-05-29T13:33:32.687Z,27.00
2023-05-29T13:35:59.396Z,27.10
2023-05-29T13:38:26.120Z,27.00
2023-05-29T13:40:52.726Z,26.90
2023-05-29T13:43:20.910Z,26.90
2023-05-29T13:45:49.257Z,27.00
2023-05-29T13:48:15.898Z,27.10
2023-05-29T13:50:42.602Z,27.20
2023-05-29T13:53:09.179Z,27.20
2023-05-29T13:55:35.853Z,27.10
2023-05-29T13:58:02.416Z,27.20
2023-05-29T14:00:29.065Z,27.20
2023-05-29T14:02:55.798Z,27.30
2023-05-29T14:05:22.588Z,27.20
2023-05-29T14:07:49.122Z,27.20
2023-05-29T14:10:16.040Z,27.30
2023-05-29T14:12:42.624Z,27.30
2023-05-29T14:15:10.116Z,27.40
2023-05-29T14:17:36.906Z,27.50
2023-05-29T14:20:05.890Z,27.40
2023-05-29T14:22:33.014Z,27.50
2023-05-29T14:25:01.188Z,27.40
2023-05-29T14:27:27.908Z,27.50
2023-05-29T14:29:54.521Z,27.50
2023-05-29T14:32:21.760Z,27.50
2023-05-29T14:34:48.422Z,27.60
2023-05-29T14:37:15.025Z,27.70
2023-05-29T14:39:41.567Z,27.70
2023-05-29T14:42:08.788Z,27.60
2023-05-29T14:44:35.356Z,27.60
2023-05-29T14:47:02.341Z,27.70
2023-05-29T14:49:35.528Z,27.70
2023-05-29T14:52:04.185Z,27.70
2023-05-29T14:54:31.247Z,27.70
2023-05-29T14:56:58.731Z,27.60
2023-05-29T14:59:26.360Z,27.60
2023-05-29T15:01:54.791Z,27.50
2023-05-29T15:04:21.355Z,27.50
2023-05-29T15:06:55.394Z,27.60
2023-05-29T15:09:29.904Z,27.60
2023-05-29T15:11:56.683Z,27.70
2023-05-29T15:14:23.240Z,27.70
2023-05-29T15:16:50.032Z,27.70
2023-05-29T15:19:16.817Z,27.70
2023-05-29T15:21:43.389Z,27.70
2023-05-29T15:24:10.002Z,27.60
2023-05-29T15:26:37.925Z,27.50
2023-05-29T15:29:04.519Z,27.50
2023-05-29T15:31:31.388Z,27.50
2023-05-29T15:33:58.140Z,27.50
2023-05-29T15:36:24.838Z,27.60
2023-05-29T15:38:51.629Z,27.60
2023-05-29T15:41:18.222Z,27.60
2023-05-29T15:43:44.760Z,27.60
2023-05-29T15:46:11.404Z,27.50
2023-05-29T15:48:38.163Z,27.60
2023-05-29T15:51:04.760Z,27.70
2023-05-29T15:53:31.302Z,27.80
2023-05-29T15:55:58.030Z,27.60
2023-05-29T15:58:25.330Z,27.60
2023-05-29T16:00:51.944Z,27.50
2023-05-29T16:03:18.590Z,27.50
2023-05-29T16:05:45.361Z,27.60
2023-05-29T16:08:11.955Z,27.70
2023-05-29T16:10:41.776Z,27.80
2023-05-29T16:13:08.472Z,27.70
2023-05-29T16:15:35.062Z,27.70
2023-05-29T16:18:02.205Z,27.70
2023-05-29T16:20:28.841Z,27.70
2023-05-29T16:22:57.006Z,27.70
2023-05-29T16:25:23.904Z,27.70
2023-05-29T16:27:50.689Z,27.80
2023-05-29T16:30:17.336Z,27.80
2023-05-29T16:32:44.004Z,27.70
2023-05-29T16:35:11.132Z,27.70
2023-05-29T16:37:38.105Z,27.80
2023-05-29T16:40:05.207Z,27.90
2023-05-29T16:42:31.963Z,28.00
2023-05-29T16:44:58.503Z,28.10
2023-05-29T16:47:25.386Z,28.10
2023-05-29T16:49:52.196Z,28.00
2023-05-29T16:52:21.023Z,28.00
2023-05-29T16:54:48.974Z,28.00
2023-05-29T16:57:16.773Z,28.20
2023-05-29T16:59:43.318Z,28.40
2023-05-29T17:02:09.924Z,28.40
2023-05-29T17:04:37.112Z,28.40
2023-05-29T17:07:04.370Z,28.60
2023-05-29T17:09:31.356Z,28.70
2023-05-29T17:11:58.385Z,28.90
2023-05-29T17:14:25.287Z,29.10
2023-05-29T17:16:52.445Z,29.20
2023-05-29T17:19:19.517Z,29.40
2023-05-29T17:21:48.112Z,29.50
2023-05-29T17:24:15.899Z,29.60
2023-05-29T17:26:42.626Z,29.60
2023-05-29T17:29:09.385Z,29.60
2023-05-29T17:31:36.471Z,29.50
2023-05-29T17:34:03.046Z,29.50
2023-05-29T17:36:29.628Z,29.60
2023-05-29T17:38:56.173Z,29.60
2023-05-29T17:41:22.803Z,29.80
2023-05-29T17:43:49.425Z,29.80
2023-05-29T17:46:19.455Z,29.80
2023-05-29T17:48:49.303Z,29.80
2023-05-29T17:51:17.107Z,29.80
2023-05-29T17:53:44.336Z,29.80
2023-05-29T17:56:10.957Z,30.00
2023-05-29T17:58:37.677Z,30.10
2023-05-29T18:01:04.467Z,30.00
2023-05-29T18:03:31.179Z,29.80
2023-05-29T18:05:58.172Z,29.50
2023-05-29T18:08:24.949Z,29.10
2023-05-29T18:10:51.905Z,28.50
2023-05-29T18:13:18.583Z,28.00
2023-05-29T18:15:45.227Z,27.60
2023-05-29T18:18:12.244Z,27.30
2023-05-29T18:20:38.962Z,26.90
2023-05-29T18:23:05.571Z,26.50
2023-05-29T18:25:32.964Z,26.20
2023-05-29T18:28:00.108Z,25.90
2023-05-29T18:30:26.678Z,25.60
2023-05-29T18:32:54.761Z,25.40
2023-05-29T18:35:21.447Z,25.20
2023-05-29T18:37:49.124Z,25.10
2023-05-29T18:40:16.849Z,24.90
2023-05-29T18:42:43.404Z,24.80
2023-05-29T18:45:10.602Z,24.60
2023-05-29T18:47:37.258Z,24.50
2023-05-29T18:50:04.080Z,24.40
2023-05-29T18:52:30.893Z,24.30
2023-05-29T18:54:57.483Z,24.20
2023-05-29T18:57:24.080Z,24.10
2023-05-29T18:59:54.207Z,24.00
2023-05-29T19:02:20.908Z,23.90
2023-05-29T19:04:47.457Z,23.70
2023-05-29T19:07:15.037Z,23.70
2023-05-29T19:09:43.128Z,23.50
2023-05-29T19:12:10.548Z,23.40
2023-05-29T19:14:37.457Z,23.40
2023-05-29T19:17:08.349Z,23.20
2023-05-29T19:19:40.278Z,23.10
2023-05-29T19:22:07.461Z,23.00
2023-05-29T19:24:34.205Z,22.90
2023-05-29T19:27:00.858Z,22.80
2023-05-29T19:29:27.403Z,22.80
2023-05-29T19:31:54.009Z,22.70
2023-05-29T19:34:20.620Z,22.60
2023-05-29T19:36:47.296Z,22.50
2023-05-29T19:39:13.774Z,22.40
2023-05-29T19:41:41.845Z,22.40
2023-05-29T19:44:09.290Z,22.30
2023-05-29T19:46:39.977Z,22.20
2023-05-29T19:49:06.821Z,22.10
2023-05-29T19:51:34.297Z,22.00
2023-05-29T19:54:01.284Z,21.90
2023-05-29T19:56:29.326Z,21.90
2023-05-29T19:58:56.239Z,21.80
2023-05-29T20:01:23.251Z,21.80
2023-05-29T20:03:50.567Z,21.70
2023-05-29T20:06:18.372Z,21.60
2023-05-29T20:08:45.105Z,21.50
2023-05-29T20:11:11.770Z,21.50
2023-05-29T20:13:38.334Z,21.50
2023-05-29T20:16:05.096Z,21.40
2023-05-29T20:18:32.888Z,21.30
2023-05-29T20:20:59.874Z,21.30
2023-05-29T20:23:26.825Z,21.20
2023-05-29T20:25:53.326Z,21.20
2023-05-29T20:28:21.591Z,21.10
2023-05-29T20:30:48.459Z,21.10
2023-05-29T20:33:15.087Z,21.00
2023-05-29T20:35:42.609Z,20.90
2023-05-29T20:38:09.213Z,20.90
2023-05-29T20:40:37.289Z,20.90
2023-05-29T20:43:07.349Z,20.80
2023-05-29T20:45:34.482Z,20.80
2023-05-29T20:48:01.278Z,20.70
2023-05-29T20:50:28.181Z,20.60
2023-05-29T20:52:55.193Z,20.60
2023-05-29T20:55:22.127Z,20.60
2023-05-29T20:57:48.756Z,20.50
2023-05-29T21:00:15.677Z,20.40
2023-05-29T21:02:43.022Z,20.40
2023-05-29T21:05:10.469Z,20.30
2023-05-29T21:07:38.319Z,20.30
2023-05-29T21:10:06.461Z,20.30
2023-05-29T21:12:33.689Z,20.20
2023-05-29T21:15:01.706Z,20.20
2023-05-29T21:17:28.662Z,20.10
2023-05-29T21:19:55.664Z,20.10
2023-05-29T21:22:22.848Z,20.10
2023-05-29T21:24:49.387Z,20.00
2023-05-29T21:27:16.626Z,19.90
2023-05-29T21:29:43.294Z,19.90
2023-05-29T21:32:10.244Z,19.90
2023-05-29T21:34:36.829Z,19.80
2023-05-29T21:37:04.973Z,19.80
2023-05-29T21:39:31.782Z,19.80
2023-05-29T21:41:58.450Z,19.80
2023-05-29T21:44:26.943Z,19.70
2023-05-29T21:46:53.507Z,19.60
2023-05-29T21:49:20.118Z,19.60
2023-05-29T21:51:46.777Z,19.60
2023-05-29T21:54:13.273Z,19.50
2023-05-29T21:56:39.993Z,19.50
2023-05-29T21:59:07.583Z,19.40
2023-05-29T22:01:34.352Z,19.40
2023-05-29T22:04:02.387Z,19.40
2023-05-29T22:06:30.611Z,19.30
2023-05-29T22:08:57.224Z,19.30
2023-05-29T22:11:27.004Z,19.30
2023-05-29T22:13:54.191Z,19.20
2023-05-29T22:16:20.839Z,19.10
2023-05-29T22:19:03.867Z,19.10
2023-05-29T22:21:33.416Z,19.00
2023-05-29T22:24:02.494Z,19.00
2023-05-29T22:26:30.249Z,18.90
2023-05-29T22:28:57.130Z,18.90
2023-05-29T22:31:24.237Z,18.90
2023-05-29T22:33:51.455Z,18.90
2023-05-29T22:36:19.177Z,18.90
2023-05-29T22:38:46.194Z,18.90
2023-05-29T22:41:12.826Z,18.90
2023-05-29T22:43:39.931Z,18.80
2023-05-29T22:46:07.110Z,18.80
2023-05-29T22:48:34.257Z,18.70
2023-05-29T22:51:04.950Z,18.70
2023-05-29T22:53:33.948Z,18.70
2023-05-29T22:56:01.415Z,18.60
2023-05-29T22:58:28.179Z,18.60
2023-05-29T23:00:54.964Z,18.60
2023-05-29T23:03:22.075Z,18.40
2023-05-29T23:05:49.945Z,18.50
2023-05-29T23:08:16.591Z,18.50
2023-05-29T23:10:43.396Z,18.60
2023-05-29T23:13:09.936Z,18.60
2023-05-29T23:15:36.531Z,18.60
2023-05-29T23:18:03.923Z,18.60
2023-05-29T23:20:30.589Z,18.60
2023-05-29T23:22:57.272Z,18.50
2023-05-29T23:25:25.385Z,18.60
2023-05-29T23:27:52.247Z,18.50
2023-05-29T23:30:18.968Z,18.40
2023-05-29T23:32:45.734Z,18.40
2023-05-29T23:35:12.418Z,18.30
2023-05-29T23:37:38.936Z,18.20
2023-05-29T23:40:06.540Z,18.10
2023-05-29T23:42:33.157Z,18.10
2023-05-29T23:44:59.675Z,18.20
2023-05-29T23:47:26.544Z,18.10
2023-05-29T23:49:53.129Z,18.10
2023-05-29T23:52:19.658Z,18.00
2023-05-29T23:54:46.226Z,17.90
2023-05-29T23:57:12.893Z,17.90
2023-05-29T23:59:40.329Z,17.80
